createdAt,value
2019-04-19T00:02:08.129Z,0.00
2019-04-19T00:03:04.383Z,0.00
2019-04-19T00:05:07.962Z,0.00
2019-04-19T00:06:15.144Z,0.00
2019-04-19T00:08:25.914Z,0.00
2019-04-19T00:09:26.369Z,0.00
2019-04-19T00:11:15.523Z,0.00
2019-04-19T00:12:17.987Z,0.00
2019-04-19T00:14:10.713Z,0.00
2019-04-19T00:15:09.835Z,0.00
2019-04-19T00:17:22.725Z,0.00
2019-04-19T00:18:16.909Z,0.00
2019-04-19T00:20:36.467Z,0.00
2019-04-19T00:21:33.757Z,0.00
2019-04-19T00:23:31.130Z,0.00
2019-04-19T00:24:23.036Z,0.00
2019-04-19T00:26:27.545Z,0.00
2019-04-19T00:27:34.427Z,0.00
2019-04-19T00:29:42.410Z,0.00
2019-04-19T00:30:44.375Z,0.00
2019-04-19T00:32:54.758Z,0.00
2019-04-19T00:33:42.565Z,0.00
2019-04-19T00:35:41.302Z,0.00
2019-04-19T00:36:40.660Z,0.00
2019-04-19T00:38:58.250Z,0.00
2019-04-19T00:40:05.126Z,0.00
2019-04-19T00:42:13.888Z,0.00
2019-04-19T00:43:03.867Z,0.00
2019-04-19T00:45:16.269Z,0.00
2019-04-19T00:46:12.516Z,0.00
2019-04-19T00:48:08.784Z,0.00
2019-04-19T00:49:11.184Z,0.00
2019-04-19T00:51:04.122Z,0.00
2019-04-19T00:52:05.208Z,0.00
2019-04-19T00:54:07.264Z,0.00
2019-04-19T00:55:07.091Z,0.00
2019-04-19T00:57:05.006Z,0.00
2019-04-19T00:58:09.166Z,0.00
2019-04-19T01:00:04.581Z,0.00
2019-04-19T01:01:11.780Z,0.00
2019-04-19T01:03:11.797Z,0.00
2019-04-19T01:04:15.628Z,0.00
2019-04-19T01:06:16.837Z,0.00
2019-04-19T01:07:21.097Z,0.00
2019-04-19T01:09:31.035Z,0.00
2019-04-19T01:10:31.299Z,0.00
2019-04-19T01:12:40.277Z,0.00
2019-04-19T01:13:38.207Z,0.00
2019-04-19T01:15:33.410Z,0.00
2019-04-19T01:16:48.158Z,0.00
2019-04-19T01:18:42.164Z,0.00
2019-04-19T01:19:32.147Z,0.00
2019-04-19T01:21:24.344Z,0.00
2019-04-19T01:22:29.425Z,0.00
2019-04-19T01:24:33.377Z,0.00
2019-04-19T01:25:30.539Z,0.00
2019-04-19T01:27:35.827Z,0.00
2019-04-19T01:28:33.758Z,0.00
2019-04-19T01:30:41.747Z,0.00
2019-04-19T01:31:37.807Z,0.00
2019-04-19T01:33:44.182Z,0.00
2019-04-19T01:34:42.196Z,0.00
2019-04-19T01:36:48.464Z,0.00
2019-04-19T01:37:53.116Z,0.00
2019-04-19T01:40:04.561Z,0.00
2019-04-19T01:41:08.114Z,0.00
2019-04-19T01:43:13.363Z,0.00
2019-04-19T01:44:16.215Z,0.00
2019-04-19T01:46:14.102Z,0.00
2019-04-19T01:47:22.752Z,0.00
2019-04-19T01:49:13.984Z,0.00
2019-04-19T01:50:15.061Z,0.00
2019-04-19T01:52:36.731Z,0.00
2019-04-19T01:53:25.477Z,0.00
2019-04-19T01:55:22.818Z,0.00
2019-04-19T01:56:17.193Z,0.00
2019-04-19T01:58:20.595Z,0.00
2019-04-19T01:59:18.131Z,0.00
2019-04-19T02:01:16.510Z,0.00
2019-04-19T02:02:15.509Z,0.00
2019-04-19T02:04:20.698Z,0.00
2019-04-19T02:05:17.910Z,0.00
2019-04-19T02:07:23.926Z,0.00
2019-04-19T02:08:20.666Z,0.00
2019-04-19T02:10:40.804Z,0.00
2019-04-19T02:11:38.898Z,0.00
2019-04-19T02:13:33.659Z,0.00
2019-04-19T02:14:37.459Z,0.00
2019-04-19T02:16:33.351Z,0.00
2019-04-19T02:17:37.278Z,0.00
2019-04-19T02:19:38.535Z,0.00
2019-04-19T02:20:43.382Z,0.00
2019-04-19T02:22:42.758Z,0.00
2019-04-19T02:23:48.174Z,0.00
2019-04-19T02:25:45.697Z,0.00
2019-04-19T02:26:52.168Z,0.00
2019-04-19T02:28:51.309Z,0.00
2019-04-19T02:29:56.782Z,0.00
2019-04-19T02:32:27.773Z,0.00
2019-04-19T02:33:20.173Z,0.00
2019-04-19T02:35:38.411Z,0.00
2019-04-19T02:36:27.590Z,0.00
2019-04-19T02:38:31.151Z,0.00
2019-04-19T02:39:45.149Z,0.00
2019-04-19T02:41:30.366Z,0.00
2019-04-19T02:42:40.687Z,0.00
2019-04-19T02:44:27.214Z,0.00
2019-04-19T02:45:25.300Z,0.00
2019-04-19T02:47:40.364Z,0.00
2019-04-19T02:48:42.416Z,0.00
2019-04-19T02:51:00.742Z,0.00
2019-04-19T02:51:39.467Z,0.00
2019-04-19T02:53:39.480Z,0.00
2019-04-19T02:54:40.310Z,0.00
2019-04-19T02:59:59.431Z,0.00
2019-04-19T03:02:52.852Z,0.00
2019-04-19T03:04:06.763Z,0.00
2019-04-19T03:05:55.942Z,0.00
2019-04-19T03:06:40.263Z,0.00
2019-04-19T03:08:37.487Z,0.00
2019-04-19T03:09:41.100Z,0.00
2019-04-19T03:11:56.066Z,0.00
2019-04-19T03:13:01.623Z,0.00
2019-04-19T03:15:01.824Z,0.00
2019-04-19T03:16:02.714Z,0.00
2019-04-19T03:18:13.781Z,0.00
2019-04-19T03:19:04.965Z,0.00
2019-04-19T03:20:55.510Z,0.00
2019-04-19T03:21:56.311Z,0.00
2019-04-19T03:24:05.173Z,0.00
2019-04-19T03:25:08.212Z,0.00
2019-04-19T03:27:01.007Z,0.00
2019-04-19T03:28:03.856Z,0.00
2019-04-19T03:30:14.537Z,0.00
2019-04-19T03:33:25.045Z,0.00
2019-04-19T03:34:37.931Z,0.00
2019-04-19T03:36:19.938Z,0.00
2019-04-19T03:37:25.622Z,0.00
2019-04-19T03:39:23.180Z,0.00
2019-04-19T03:40:29.960Z,0.00
2019-04-19T03:42:39.033Z,0.00
2019-04-19T03:43:35.264Z,4.00
2019-04-19T03:45:33.678Z,0.00
2019-04-19T03:46:46.107Z,4.00
2019-04-19T03:49:41.908Z,4.00
2019-04-19T03:51:35.809Z,8.00
2019-04-19T03:52:35.696Z,8.00
2019-04-19T03:54:32.699Z,12.00
2019-04-19T03:55:39.393Z,12.00
2019-04-19T03:57:39.169Z,20.00
2019-04-19T03:58:27.019Z,20.00
2019-04-19T04:00:30.184Z,32.00
2019-04-19T04:01:38.297Z,40.00
2019-04-19T04:03:38.476Z,52.00
2019-04-19T04:04:35.177Z,64.00
2019-04-19T04:06:42.229Z,84.00
2019-04-19T04:07:38.954Z,100.00
2019-04-19T04:09:47.540Z,128.00
2019-04-19T04:10:45.545Z,148.00
2019-04-19T04:12:56.644Z,192.00
2019-04-19T04:14:03.024Z,216.00
2019-04-19T04:16:05.726Z,272.00
2019-04-19T04:16:53.520Z,300.00
2019-04-19T04:18:55.554Z,372.00
2019-04-19T04:19:56.740Z,412.00
2019-04-19T04:22:00.751Z,500.00
2019-04-19T04:23:03.658Z,544.00
2019-04-19T04:25:14.355Z,648.00
2019-04-19T04:26:09.962Z,700.00
2019-04-19T04:28:25.314Z,812.00
2019-04-19T04:29:17.283Z,868.00
2019-04-19T04:31:12.153Z,980.00
2019-04-19T04:32:12.727Z,1040.00
2019-04-19T04:34:23.063Z,1172.00
2019-04-19T04:35:24.306Z,1232.00
2019-04-19T04:37:24.874Z,1368.00
2019-04-19T04:38:16.753Z,1436.00
2019-04-19T04:40:16.605Z,1576.00
2019-04-19T04:41:21.814Z,1644.00
2019-04-19T04:43:32.323Z,1784.00
2019-04-19T04:44:39.008Z,1852.00
2019-04-19T04:46:46.389Z,1992.00
2019-04-19T04:47:45.231Z,2060.00
2019-04-19T04:49:53.603Z,2232.00
2019-04-19T04:50:53.216Z,2364.00
2019-04-19T04:52:37.738Z,2596.00
2019-04-19T04:53:34.169Z,2676.00
2019-04-19T04:55:44.869Z,2824.00
2019-04-19T04:56:49.813Z,2900.00
2019-04-19T04:58:44.473Z,3044.00
2019-04-19T04:59:46.975Z,3116.00
2019-04-19T05:01:54.866Z,3260.00
2019-04-19T05:03:03.664Z,3328.00
2019-04-19T05:05:10.442Z,3464.00
2019-04-19T05:06:13.944Z,3528.00
2019-04-19T05:08:14.217Z,3656.00
2019-04-19T05:09:11.088Z,3720.00
2019-04-19T05:11:07.191Z,3836.00
2019-04-19T05:12:15.208Z,3896.00
2019-04-19T05:14:11.345Z,4016.00
2019-04-19T05:15:07.576Z,4080.00
2019-04-19T05:17:26.234Z,4192.00
2019-04-19T05:20:17.091Z,4348.00
2019-04-19T05:21:21.961Z,4396.00
2019-04-19T05:23:22.204Z,4504.00
2019-04-19T05:24:27.649Z,4544.00
2019-04-19T05:26:44.914Z,4644.00
2019-04-19T05:27:34.577Z,4688.00
2019-04-19T05:29:24.362Z,4768.00
2019-04-19T05:30:15.348Z,4816.00
2019-04-19T05:32:26.525Z,4908.00
2019-04-19T05:33:31.870Z,4948.00
2019-04-19T05:35:34.744Z,5040.00
2019-04-19T05:36:38.904Z,5084.00
2019-04-19T05:38:53.743Z,5172.00
2019-04-19T05:39:48.697Z,5208.00
2019-04-19T05:41:35.082Z,5280.00
2019-04-19T05:42:40.084Z,5316.00
2019-04-19T05:44:47.508Z,5396.00
2019-04-19T05:45:51.669Z,5436.00
2019-04-19T05:47:44.041Z,5512.00
2019-04-19T05:48:40.028Z,5544.00
2019-04-19T05:50:56.848Z,5620.00
2019-04-19T05:51:53.897Z,5656.00
2019-04-19T05:53:45.917Z,5708.00
2019-04-19T05:54:39.038Z,5740.00
2019-04-19T05:56:49.232Z,5808.00
2019-04-19T05:57:59.295Z,5864.00
2019-04-19T05:59:57.785Z,5988.00
2019-04-19T06:01:04.627Z,6028.00
2019-04-19T06:03:03.840Z,6092.00
2019-04-19T06:04:11.718Z,6108.00
2019-04-19T06:06:19.748Z,6108.00
2019-04-19T06:09:00.813Z,6176.00
2019-04-19T06:10:02.087Z,6212.00
2019-04-19T06:12:13.533Z,6272.00
2019-04-19T06:13:09.544Z,6300.00
2019-04-19T06:15:32.089Z,6364.00
2019-04-19T06:16:28.920Z,6388.00
2019-04-19T06:18:28.379Z,6464.00
2019-04-19T06:19:33.648Z,6504.00
2019-04-19T06:21:36.782Z,6552.00
2019-04-19T06:22:26.265Z,6576.00
2019-04-19T06:24:31.995Z,6640.00
2019-04-19T06:25:34.561Z,6680.00
2019-04-19T06:27:46.620Z,6768.00
2019-04-19T06:28:48.056Z,6812.00
2019-04-19T06:30:41.466Z,6912.00
2019-04-19T06:31:43.175Z,6944.00
2019-04-19T06:33:42.734Z,7208.00
2019-04-19T06:34:44.305Z,8392.00
2019-04-19T06:36:29.642Z,12380.00
2019-04-19T06:37:32.566Z,12952.00
2019-04-19T06:39:35.062Z,14192.00
2019-04-19T06:40:36.605Z,15800.00
2019-04-19T06:42:46.460Z,15340.00
2019-04-19T06:43:51.718Z,13352.00
2019-04-19T06:45:58.445Z,14164.00
2019-04-19T06:46:58.731Z,14780.00
2019-04-19T06:48:54.173Z,16192.00
2019-04-19T06:49:49.668Z,17952.00
2019-04-19T06:52:00.065Z,16224.00
2019-04-19T06:52:53.238Z,15556.00
2019-04-19T06:54:56.099Z,18016.00
2019-04-19T06:56:06.010Z,17504.00
2019-04-19T06:58:07.652Z,19200.00
2019-04-19T06:59:10.457Z,19968.00
2019-04-19T07:01:04.897Z,17248.00
2019-04-19T07:01:57.455Z,15060.00
2019-04-19T07:03:58.261Z,16512.00
2019-04-19T07:05:15.405Z,17440.00
2019-04-19T07:07:22.151Z,21536.00
2019-04-19T07:08:44.698Z,25856.00
2019-04-19T07:10:37.280Z,37984.00
2019-04-19T07:11:28.651Z,37472.00
2019-04-19T07:13:24.914Z,20256.00
2019-04-19T07:14:18.548Z,18720.00
2019-04-19T07:16:51.432Z,18816.00
2019-04-19T07:17:36.453Z,16832.00
2019-04-19T07:19:38.654Z,14812.00
2019-04-19T07:20:33.680Z,14776.00
2019-04-19T07:22:42.198Z,14588.00
2019-04-19T07:23:44.014Z,14504.00
2019-04-19T07:25:55.524Z,14580.00
2019-04-19T07:26:49.384Z,14564.00
2019-04-19T07:28:36.851Z,14556.00
2019-04-19T07:29:33.902Z,14716.00
2019-04-19T07:31:28.082Z,15340.00
2019-04-19T07:32:33.929Z,16800.00
2019-04-19T07:34:42.498Z,31584.00
2019-04-19T07:35:58.899Z,32608.00
2019-04-19T07:37:52.456Z,31776.00
2019-04-19T07:38:59.356Z,31200.00
2019-04-19T07:41:01.656Z,32672.00
2019-04-19T07:42:03.518Z,35328.00
2019-04-19T07:43:59.188Z,37952.00
2019-04-19T07:44:51.478Z,37376.00
2019-04-19T07:47:06.814Z,36832.00
2019-04-19T07:47:58.753Z,38368.00
2019-04-19T07:50:03.905Z,40224.00
2019-04-19T07:51:02.259Z,42016.00
2019-04-19T07:53:00.690Z,45088.00
2019-04-19T07:53:59.993Z,47200.00
2019-04-19T07:56:13.616Z,47264.00
2019-04-19T07:57:39.584Z,46688.00
2019-04-19T07:59:33.634Z,47808.00
2019-04-19T08:00:37.673Z,50720.00
2019-04-19T08:02:48.697Z,53280.00
2019-04-19T08:03:52.974Z,53216.00
2019-04-19T08:05:44.092Z,56864.00
2019-04-19T08:09:53.801Z,57344.00
2019-04-19T08:11:56.087Z,57568.00
2019-04-19T08:12:54.994Z,59904.00
2019-04-19T08:14:48.189Z,59072.00
2019-04-19T08:15:44.252Z,63776.00
2019-04-19T08:27:44.896Z,64320.00
2019-04-19T08:29:48.969Z,64256.00
2019-04-19T08:30:47.840Z,67232.00
2019-04-19T08:32:45.049Z,69248.00
2019-04-19T08:33:44.823Z,72416.00
2019-04-19T08:35:52.413Z,69568.00
2019-04-19T08:36:53.180Z,68928.00
2019-04-19T08:39:12.823Z,71680.00
2019-04-19T08:40:16.098Z,73280.00
2019-04-19T08:42:15.146Z,76608.00
2019-04-19T08:43:17.332Z,75360.00
2019-04-19T08:45:09.488Z,73248.00
2019-04-19T08:46:02.819Z,76128.00
2019-04-19T08:48:13.965Z,69696.00
2019-04-19T08:49:11.943Z,74368.00
2019-04-19T08:51:01.279Z,75136.00
2019-04-19T08:52:08.513Z,74016.00
2019-04-19T08:54:28.780Z,82240.00
2019-04-19T08:55:26.332Z,83200.00
2019-04-19T08:57:14.772Z,75808.00
2019-04-19T08:58:23.673Z,79360.00
2019-04-19T09:00:55.768Z,77024.00
2019-04-19T09:01:33.453Z,75392.00
2019-04-19T09:03:40.356Z,81856.00
2019-04-19T09:04:37.149Z,79424.00
2019-04-19T09:07:23.029Z,85088.00
2019-04-19T09:07:47.345Z,82624.00
2019-04-19T09:10:00.239Z,81696.00
2019-04-19T09:10:48.300Z,83200.00
2019-04-19T09:12:55.343Z,82784.00
2019-04-19T09:13:52.192Z,87552.00
2019-04-19T09:15:57.766Z,89568.00
2019-04-19T09:17:01.108Z,87232.00
2019-04-19T09:19:03.345Z,88384.00
2019-04-19T09:20:15.550Z,86880.00
2019-04-19T09:21:58.154Z,86624.00
2019-04-19T09:22:57.485Z,88128.00
2019-04-19T09:24:57.136Z,87232.00
2019-04-19T09:26:03.149Z,89632.00
2019-04-19T09:28:17.090Z,90592.00
2019-04-19T09:29:19.832Z,82944.00
2019-04-19T09:31:04.503Z,82080.00
2019-04-19T09:31:56.008Z,88640.00
2019-04-19T09:34:00.436Z,89088.00
2019-04-19T09:34:57.857Z,88384.00
2019-04-19T09:37:05.538Z,89824.00
2019-04-19T09:38:07.219Z,93984.00
2019-04-19T09:40:08.313Z,90752.00
2019-04-19T09:41:06.259Z,88480.00
2019-04-19T09:43:20.084Z,88576.00
2019-04-19T09:44:14.351Z,92864.00
2019-04-19T09:46:10.301Z,88960.00
2019-04-19T09:47:10.412Z,89184.00
2019-04-19T09:49:26.850Z,93440.00
2019-04-19T09:50:30.525Z,90112.00
2019-04-19T09:52:42.812Z,89888.00
2019-04-19T09:55:45.641Z,95808.00
2019-04-19T09:56:43.363Z,96128.00
2019-04-19T09:58:42.829Z,94240.00
2019-04-19T09:59:32.828Z,96128.00
2019-04-19T10:01:28.153Z,96576.00
2019-04-19T10:02:28.990Z,94656.00
2019-04-19T10:04:25.139Z,95104.00
2019-04-19T10:05:24.914Z,93376.00
2019-04-19T10:07:29.204Z,101088.00
2019-04-19T10:08:30.663Z,102432.00
2019-04-19T10:10:33.580Z,89280.00
2019-04-19T10:11:34.911Z,96416.00
2019-04-19T10:13:38.032Z,106144.00
2019-04-19T10:14:39.576Z,99712.00
2019-04-19T10:16:42.465Z,105440.00
2019-04-19T10:17:42.801Z,105568.00
2019-04-19T10:19:47.108Z,106016.00
2019-04-19T10:20:47.526Z,106144.00
2019-04-19T10:22:51.375Z,100896.00
2019-04-19T10:23:52.003Z,106304.00
2019-04-19T10:25:59.197Z,105504.00
2019-04-19T10:26:56.815Z,99520.00
2019-04-19T10:29:01.758Z,105696.00
2019-04-19T10:30:02.004Z,110432.00
2019-04-19T10:32:04.721Z,109504.00
2019-04-19T10:33:05.002Z,102848.00
2019-04-19T10:35:09.429Z,105664.00
2019-04-19T10:36:10.660Z,103712.00
2019-04-19T10:38:13.633Z,110432.00
2019-04-19T10:39:13.923Z,113568.00
2019-04-19T10:41:07.186Z,95456.00
2019-04-19T10:42:08.288Z,89984.00
2019-04-19T10:44:15.461Z,108672.00
2019-04-19T10:45:12.223Z,112160.00
2019-04-19T10:47:16.692Z,99936.00
2019-04-19T10:48:16.158Z,102304.00
2019-04-19T10:50:29.380Z,108320.00
2019-04-19T10:51:21.639Z,106304.00
2019-04-19T10:53:26.084Z,109408.00
2019-04-19T10:54:26.276Z,107680.00
2019-04-19T10:56:30.076Z,108672.00
2019-04-19T10:57:29.923Z,107616.00
2019-04-19T10:59:34.375Z,114080.00
2019-04-19T11:00:33.980Z,112096.00
2019-04-19T11:02:38.488Z,108608.00
2019-04-19T11:03:39.052Z,117856.00
2019-04-19T11:05:42.883Z,113792.00
2019-04-19T11:06:42.884Z,106976.00
2019-04-19T11:08:47.090Z,109280.00
2019-04-19T11:09:47.345Z,109600.00
2019-04-19T11:11:51.929Z,114048.00
2019-04-19T11:12:52.481Z,111456.00
2019-04-19T11:14:55.990Z,103136.00
2019-04-19T11:15:56.337Z,111104.00
2019-04-19T11:18:01.539Z,118592.00
2019-04-19T11:19:11.059Z,111328.00
2019-04-19T11:20:55.843Z,112576.00
2019-04-19T11:21:54.071Z,117152.00
2019-04-19T11:23:58.277Z,109920.00
2019-04-19T11:24:59.618Z,108256.00
2019-04-19T11:27:03.385Z,113376.00
2019-04-19T11:28:03.091Z,115680.00
2019-04-19T11:30:07.185Z,113248.00
2019-04-19T11:31:08.837Z,103232.00
2019-04-19T11:33:12.753Z,111360.00
2019-04-19T11:34:12.928Z,116576.00
2019-04-19T11:36:17.421Z,118752.00
2019-04-19T11:37:17.313Z,115552.00
2019-04-19T11:39:21.171Z,105376.00
2019-04-19T11:40:21.449Z,105248.00
2019-04-19T11:42:25.481Z,113664.00
2019-04-19T11:43:25.369Z,115104.00
2019-04-19T11:45:30.187Z,117536.00
2019-04-19T11:46:29.912Z,114624.00
2019-04-19T11:48:34.830Z,109184.00
2019-04-19T11:49:37.718Z,109664.00
2019-04-19T11:51:27.808Z,109216.00
2019-04-19T11:52:28.020Z,109472.00
2019-04-19T11:54:32.558Z,108928.00
2019-04-19T11:55:32.715Z,106624.00
2019-04-19T11:57:36.554Z,104032.00
2019-04-19T11:58:36.420Z,107424.00
2019-04-19T12:00:40.627Z,113472.00
2019-04-19T12:01:41.889Z,112896.00
2019-04-19T12:03:45.836Z,112544.00
2019-04-19T12:04:46.596Z,108096.00
2019-04-19T12:06:50.271Z,107424.00
2019-04-19T12:07:50.516Z,109888.00
2019-04-19T12:09:54.483Z,103168.00
2019-04-19T12:10:54.577Z,104032.00
2019-04-19T12:12:59.355Z,102688.00
2019-04-19T12:13:58.700Z,98656.00
2019-04-19T12:16:03.149Z,102048.00
2019-04-19T12:17:03.149Z,104224.00
2019-04-19T12:19:07.334Z,106176.00
2019-04-19T12:20:09.389Z,107648.00
2019-04-19T12:22:12.814Z,106368.00
2019-04-19T12:23:12.046Z,102336.00
2019-04-19T12:25:17.615Z,102016.00
2019-04-19T12:26:17.668Z,106208.00
2019-04-19T12:28:21.713Z,97056.00
2019-04-19T12:29:32.215Z,94784.00
2019-04-19T12:31:14.069Z,95616.00
2019-04-19T12:32:15.026Z,101824.00
2019-04-19T12:34:18.784Z,101344.00
2019-04-19T12:35:18.925Z,98752.00
2019-04-19T12:38:24.060Z,104576.00
2019-04-19T12:40:27.774Z,103104.00
2019-04-19T12:41:28.095Z,106752.00
2019-04-19T12:43:32.190Z,99840.00
2019-04-19T12:44:33.265Z,99200.00
2019-04-19T12:46:37.085Z,101024.00
2019-04-19T12:47:38.091Z,100512.00
2019-04-19T12:49:51.065Z,99776.00
2019-04-19T12:50:42.105Z,97952.00
2019-04-19T12:52:46.313Z,98752.00
2019-04-19T12:53:48.791Z,102496.00
2019-04-19T12:55:51.545Z,93856.00
2019-04-19T12:56:50.348Z,90880.00
2019-04-19T12:58:55.778Z,100320.00
2019-04-19T12:59:55.902Z,95552.00
2019-04-19T13:01:59.866Z,94720.00
2019-04-19T13:03:00.097Z,99168.00
2019-04-19T13:05:04.469Z,98112.00
2019-04-19T13:06:03.892Z,93728.00
2019-04-19T13:08:07.879Z,95200.00
2019-04-19T13:09:08.995Z,96128.00
2019-04-19T13:11:01.266Z,90336.00
2019-04-19T13:12:01.518Z,91424.00
2019-04-19T13:14:05.883Z,86240.00
2019-04-19T13:15:06.034Z,84832.00
2019-04-19T13:17:10.495Z,84512.00
2019-04-19T13:18:10.444Z,85664.00
2019-04-19T13:20:20.534Z,89184.00
2019-04-19T13:21:15.784Z,88000.00
2019-04-19T13:23:20.054Z,92416.00
2019-04-19T13:24:20.357Z,91264.00
2019-04-19T13:26:23.571Z,89056.00
2019-04-19T13:27:35.621Z,90624.00
2019-04-19T13:29:29.356Z,94624.00
2019-04-19T13:30:36.315Z,93312.00
2019-04-19T13:32:33.526Z,86272.00
2019-04-19T13:33:32.793Z,88832.00
2019-04-19T13:35:37.293Z,91488.00
2019-04-19T13:36:38.658Z,93568.00
2019-04-19T13:38:43.408Z,84160.00
2019-04-19T13:39:43.815Z,86272.00
2019-04-19T13:41:47.192Z,84448.00
2019-04-19T13:42:47.256Z,81344.00
2019-04-19T13:44:52.512Z,85312.00
2019-04-19T13:45:52.709Z,82080.00
2019-04-19T13:47:56.595Z,84896.00
2019-04-19T13:48:56.761Z,82432.00
2019-04-19T13:50:49.985Z,80352.00
2019-04-19T13:51:50.337Z,81312.00
2019-04-19T13:53:54.545Z,76800.00
2019-04-19T13:54:54.702Z,76384.00
2019-04-19T13:56:58.082Z,78624.00
2019-04-19T13:57:58.340Z,76608.00
2019-04-19T14:00:06.426Z,80064.00
2019-04-19T14:01:03.090Z,78304.00
2019-04-19T14:03:07.512Z,74176.00
2019-04-19T14:04:07.811Z,74560.00
2019-04-19T14:06:12.578Z,74912.00
2019-04-19T14:07:12.651Z,71200.00
2019-04-19T14:09:15.845Z,70688.00
2019-04-19T14:10:17.133Z,72352.00
2019-04-19T14:12:20.949Z,68896.00
2019-04-19T14:13:21.147Z,71744.00
2019-04-19T14:15:24.778Z,68992.00
2019-04-19T14:16:25.914Z,69920.00
2019-04-19T14:18:29.176Z,70400.00
2019-04-19T14:19:29.436Z,68128.00
2019-04-19T14:21:22.554Z,69984.00
2019-04-19T14:22:23.433Z,67936.00
2019-04-19T14:24:27.302Z,63328.00
2019-04-19T14:25:27.393Z,63680.00
2019-04-19T14:27:31.443Z,58176.00
2019-04-19T14:28:31.697Z,59328.00
2019-04-19T14:30:35.878Z,60160.00
2019-04-19T14:31:36.581Z,60480.00
2019-04-19T14:33:41.154Z,55936.00
2019-04-19T14:34:40.576Z,44768.00
2019-04-19T14:36:44.773Z,23360.00
2019-04-19T14:37:46.063Z,19552.00
2019-04-19T14:39:49.197Z,17624.00
2019-04-19T14:40:49.452Z,17272.00
2019-04-19T14:42:54.156Z,16832.00
2019-04-19T14:43:55.275Z,16696.00
2019-04-19T14:45:58.209Z,16448.00
2019-04-19T14:46:58.943Z,16320.00
2019-04-19T14:49:02.839Z,16036.00
2019-04-19T14:50:03.223Z,15916.00
2019-04-19T14:52:07.797Z,15692.00
2019-04-19T14:53:08.052Z,15540.00
2019-04-19T14:55:13.482Z,15356.00
2019-04-19T14:56:11.718Z,15236.00
2019-04-19T14:58:15.938Z,15012.00
2019-04-19T14:59:16.163Z,14892.00
2019-04-19T15:01:09.283Z,14736.00
2019-04-19T15:02:10.903Z,14632.00
2019-04-19T15:04:14.914Z,14388.00
2019-04-19T15:05:13.969Z,14288.00
2019-04-19T15:07:18.638Z,14128.00
2019-04-19T15:08:18.414Z,14064.00
2019-04-19T15:10:23.730Z,13908.00
2019-04-19T15:11:23.525Z,13836.00
2019-04-19T15:13:27.029Z,13664.00
2019-04-19T15:14:28.444Z,13592.00
2019-04-19T15:16:31.574Z,13420.00
2019-04-19T15:17:32.887Z,13360.00
2019-04-19T15:19:35.897Z,13204.00
2019-04-19T15:20:36.181Z,13148.00
2019-04-19T15:22:40.338Z,12988.00
2019-04-19T15:23:40.671Z,12940.00
2019-04-19T15:25:44.759Z,12840.00
2019-04-19T15:26:45.018Z,12804.00
2019-04-19T15:28:49.204Z,12700.00
2019-04-19T15:29:49.455Z,12644.00
2019-04-19T15:31:54.450Z,12568.00
2019-04-19T15:32:54.143Z,12548.00
2019-04-19T15:34:58.093Z,12652.00
2019-04-19T15:36:00.155Z,12728.00
2019-04-19T15:38:03.645Z,12748.00
2019-04-19T15:39:03.932Z,12796.00
2019-04-19T15:40:56.261Z,12816.00
2019-04-19T15:41:56.614Z,12876.00
2019-04-19T15:44:00.693Z,13068.00
2019-04-19T15:45:00.794Z,13044.00
2019-04-19T15:47:04.859Z,13228.00
2019-04-19T15:48:05.020Z,15996.00
2019-04-19T15:50:09.839Z,22528.00
2019-04-19T15:51:18.315Z,21920.00
2019-04-19T15:53:13.903Z,21280.00
2019-04-19T15:54:14.277Z,21568.00
2019-04-19T15:56:18.277Z,21568.00
2019-04-19T15:57:18.479Z,20064.00
2019-04-19T15:59:25.146Z,19360.00
2019-04-19T16:00:22.772Z,19872.00
2019-04-19T16:02:28.017Z,19136.00
2019-04-19T16:03:27.802Z,18720.00
2019-04-19T16:05:31.640Z,18240.00
2019-04-19T16:06:32.237Z,18368.00
2019-04-19T16:08:36.716Z,17440.00
2019-04-19T16:09:36.064Z,16832.00
2019-04-19T16:11:29.161Z,16256.00
2019-04-19T16:12:29.458Z,15900.00
2019-04-19T16:14:33.606Z,15192.00
2019-04-19T16:15:34.155Z,14772.00
2019-04-19T16:17:38.025Z,13868.00
2019-04-19T16:18:38.345Z,13724.00
2019-04-19T16:20:44.405Z,13532.00
2019-04-19T16:21:48.399Z,13340.00
2019-04-19T16:23:47.376Z,12232.00
2019-04-19T16:24:47.624Z,11744.00
2019-04-19T16:26:51.354Z,11564.00
2019-04-19T16:27:51.838Z,11232.00
2019-04-19T16:29:58.306Z,11000.00
2019-04-19T16:30:56.740Z,10816.00
2019-04-19T16:33:01.643Z,10224.00
2019-04-19T16:34:01.860Z,10008.00
2019-04-19T16:36:04.909Z,9988.00
2019-04-19T16:37:06.219Z,9696.00
2019-04-19T16:39:09.414Z,9160.00
2019-04-19T16:40:09.892Z,9080.00
2019-04-19T16:42:13.600Z,9064.00
2019-04-19T16:43:13.848Z,9276.00
2019-04-19T16:45:18.038Z,7996.00
2019-04-19T16:46:22.905Z,7692.00
2019-04-19T16:48:22.471Z,7456.00
2019-04-19T16:49:22.759Z,7404.00
2019-04-19T16:51:16.849Z,7120.00
2019-04-19T16:52:16.219Z,6984.00
2019-04-19T16:54:20.421Z,6580.00
2019-04-19T16:55:21.224Z,6448.00
2019-04-19T16:57:29.600Z,6280.00
2019-04-19T16:58:26.145Z,6204.00
2019-04-19T17:00:29.117Z,6072.00
2019-04-19T17:01:30.488Z,6044.00
2019-04-19T17:03:33.522Z,5912.00
2019-04-19T17:04:34.701Z,5832.00
2019-04-19T17:06:38.360Z,5536.00
2019-04-19T17:07:39.356Z,5496.00
2019-04-19T17:09:42.736Z,5324.00
2019-04-19T17:10:42.869Z,5248.00
2019-04-19T17:12:47.295Z,5080.00
2019-04-19T17:13:47.050Z,5028.00
2019-04-19T17:15:51.273Z,4860.00
2019-04-19T17:16:52.777Z,4780.00
2019-04-19T17:18:56.901Z,4628.00
2019-04-19T17:19:57.130Z,4548.00
2019-04-19T17:22:08.049Z,4384.00
2019-04-19T17:23:00.900Z,4328.00
2019-04-19T17:25:05.203Z,4204.00
2019-04-19T17:26:04.959Z,4120.00
2019-04-19T17:28:09.094Z,3980.00
2019-04-19T17:29:10.696Z,3924.00
2019-04-19T17:31:02.552Z,3808.00
2019-04-19T17:32:02.787Z,3728.00
2019-04-19T17:34:06.947Z,3572.00
2019-04-19T17:35:08.003Z,3464.00
2019-04-19T17:37:11.933Z,3272.00
2019-04-19T17:38:25.011Z,3200.00
2019-04-19T17:40:16.446Z,3056.00
2019-04-19T17:41:16.617Z,2984.00
2019-04-19T17:43:21.491Z,2808.00
2019-04-19T17:44:21.757Z,2724.00
2019-04-19T17:46:26.475Z,2544.00
2019-04-19T17:47:30.761Z,2464.00
2019-04-19T17:49:30.764Z,2292.00
2019-04-19T17:52:36.623Z,2024.00
2019-04-19T17:53:40.135Z,1944.00
2019-04-19T17:55:46.035Z,1776.00
2019-04-19T17:56:39.814Z,1700.00
2019-04-19T17:58:46.336Z,1540.00
2019-04-19T17:59:46.003Z,1464.00
2019-04-19T18:01:49.623Z,1316.00
2019-04-19T18:02:51.055Z,1248.00
2019-04-19T18:04:54.203Z,1116.00
2019-04-19T18:05:54.438Z,1052.00
2019-04-19T18:07:58.624Z,928.00
2019-04-19T18:09:05.686Z,868.00
2019-04-19T18:10:55.629Z,764.00
2019-04-19T18:11:53.569Z,716.00
2019-04-19T18:13:57.285Z,616.00
2019-04-19T18:14:56.999Z,568.00
2019-04-19T18:17:01.296Z,484.00
2019-04-19T18:18:04.258Z,440.00
2019-04-19T18:20:08.733Z,368.00
2019-04-19T18:21:05.941Z,332.00
2019-04-19T18:23:21.359Z,272.00
2019-04-19T18:24:18.937Z,244.00
2019-04-19T18:26:25.564Z,192.00
2019-04-19T18:27:19.970Z,172.00
2019-04-19T18:29:21.783Z,132.00
2019-04-19T18:30:20.094Z,116.00
2019-04-19T18:32:23.889Z,92.00
2019-04-19T18:33:24.570Z,80.00
2019-04-19T18:35:30.996Z,56.00
2019-04-19T18:36:29.464Z,48.00
2019-04-19T18:38:32.900Z,32.00
2019-04-19T18:39:34.008Z,28.00
2019-04-19T18:41:27.015Z,20.00
2019-04-19T18:42:26.298Z,16.00
2019-04-19T18:44:39.827Z,16.00
2019-04-19T18:45:34.236Z,12.00
2019-04-19T18:47:34.990Z,8.00
2019-04-19T18:48:35.678Z,4.00
2019-04-19T18:50:42.512Z,4.00
2019-04-19T18:51:43.467Z,4.00
2019-04-19T18:53:57.964Z,0.00
2019-04-19T18:54:54.079Z,4.00
2019-04-19T18:56:55.425Z,0.00
2019-04-19T18:57:49.743Z,0.00
2019-04-19T18:59:56.709Z,0.00
2019-04-19T19:00:55.319Z,0.00
2019-04-19T19:03:01.824Z,0.00
2019-04-19T19:03:58.044Z,0.00